Portada
METAR-TAF:

METAR-TAF

Aeropuertos :

Aeropuerto de Catania-Fontanarossa

Catania, Italia

latitud: 37-28N, longitud: 015-03E, altitud: 11 m

Observación

El informe se hizo hace 43 minutos, a las 08:20 UTC
Viento 9 kt del este, variando entre este-noreste y este-sureste
Temperatura 15°C
Humedad 82%
Presión 1025 hPa
Visibilidad 10 km o más
Escasas nubes a una altura de 2000 ft
Cielo nuboso a una altura de 5000 ft

METAR: LICC 070820Z 09009KT 060V120 9999 FEW020 BKN050 15/12 Q1025

Hora: 10:03 (09:03 UTC)

Pronóstico

El informe se hizo hace 29 minutos, a las 08:34 UTC
Pronóstico válido del 07 a las 06 UTC al 08 a las 06 UTC
Viento 12 kt del este
Visibilidad 10 km o más
Nubes dispersas a una altura de 4000 ft
Evolucionando progresivamente
del 07 a las 18 UTC al 07 a las 20 UTC
Viento 5 kt con dirección variable

TAF: LICC 070834Z 0706/0806 09012KT 9999 SCT040 BECMG 0718/0720 VRB05KT

Observaciones y pronósticos meteorológicos de más de 4000 aeropuertos (mensajes METAR y TAF).

Los puntos amarillos y rojos representan las estaciones disponibles.

Ponga el ratón en el punto deseado para ver el nombre de la estación.

Haga clic para ver las observaciones y los pronósticos meteorológicos.

Para cambiar el mapa : haga clic en los botones verdes con una cruz de color negro para hacer un zoom, en el botón verde con un guión para alejar o en las flechas verdes para mapas adyacentes.


METAR-TAF: